Time;durP1;ratioP1;P1;durP2;ratioP2;P2;SDS_P1;SDS_P2;PMS_P1;PMS_P2;Temp;Humidity;BMP_temperature;BMP_pressure;BME280_temperature;BME280_humidity;BME280_pressure;Samples;Min_cycle;Max_cycle;Signal;HPM_P1;HPM_P2
2022/03/24 00:00:37;;;;;;;69.53;29.73;;;;;;;4.06;64.71;102923.41;5003399;28;20290;-67
2022/03/24 00:03:03;;;;;;;60.58;30.02;;;;;;;4.10;64.84;102913.72;5003062;28;20042;-67
2022/03/24 00:05:29;;;;;;;61.97;29.02;;;;;;;3.99;65.17;102912.88;5001314;28;20813;-66
2022/03/24 00:07:55;;;;;;;68.22;31.75;;;;;;;3.93;64.92;102916.41;4984956;28;20120;-66
2022/03/24 00:10:20;;;;;;;58.90;29.02;;;;;;;4.08;64.59;102919.00;5002704;28;20045;-67
2022/03/24 00:12:46;;;;;;;53.63;28.08;;;;;;;3.94;64.49;102912.88;5002404;28;20040;-68
2022/03/24 00:15:11;;;;;;;59.67;27.73;;;;;;;3.94;64.47;102917.28;5001347;28;20049;-67
2022/03/24 00:17:38;;;;;;;60.17;28.23;;;;;;;3.96;64.15;102915.50;5003106;28;20525;-67
2022/03/24 00:20:04;;;;;;;59.88;29.13;;;;;;;3.97;64.43;102919.94;5002964;28;20041;-67
2022/03/24 00:22:29;;;;;;;61.80;29.10;;;;;;;3.96;63.95;102907.59;4983682;28;20066;-67
2022/03/24 00:24:56;;;;;;;58.88;28.88;;;;;;;3.97;64.00;102906.75;4983428;28;20053;-67
2022/03/24 00:27:21;;;;;;;60.65;28.98;;;;;;;4.03;63.80;102912.88;4983398;28;20645;-67
2022/03/24 00:29:47;;;;;;;55.13;28.02;;;;;;;3.93;64.18;102916.41;4983216;28;20030;-68
2022/03/24 00:32:12;;;;;;;66.50;30.17;;;;;;;3.91;63.77;102912.88;4983659;28;20089;-66
2022/03/24 00:34:38;;;;;;;64.88;30.40;;;;;;;3.85;64.34;102912.91;4983966;28;20046;-67
2022/03/24 00:37:08;;;;;;;52.60;26.02;;;;;;;3.82;64.40;102918.22;4966028;28;20035;-67
2022/03/24 00:39:34;;;;;;;57.88;26.30;;;;;;;3.77;64.35;102910.31;4966207;28;20141;-67
2022/03/24 00:42:00;;;;;;;62.63;28.05;;;;;;;3.77;63.60;102910.31;4983878;28;20050;-66
2022/03/24 00:44:26;;;;;;;66.65;30.42;;;;;;;3.90;63.51;102900.56;4965992;28;20050;-66
2022/03/24 00:46:52;;;;;;;58.95;28.95;;;;;;;3.87;63.47;102900.59;4984421;28;20113;-67
2022/03/24 00:49:18;;;;;;;58.72;28.80;;;;;;;3.82;63.27;102899.75;4967149;28;20788;-67
2022/03/24 00:51:44;;;;;;;66.05;30.48;;;;;;;3.81;63.65;102905.88;4984998;28;20672;-67
2022/03/24 00:54:10;;;;;;;63.97;30.20;;;;;;;3.77;63.75;102901.50;4967227;28;20050;-67
2022/03/24 00:56:35;;;;;;;60.55;27.67;;;;;;;3.78;63.40;102900.63;4967298;28;20518;-67
2022/03/24 00:59:01;;;;;;;59.97;29.88;;;;;;;3.70;63.86;102897.97;4987310;28;20034;-67
2022/03/24 01:01:26;;;;;;;62.85;29.23;;;;;;;3.75;63.56;102898.84;5004374;28;20050;-68
2022/03/24 01:03:52;;;;;;;61.13;28.52;;;;;;;3.73;63.98;102897.13;5004649;28;20038;-67
2022/03/24 01:06:18;;;;;;;57.80;26.45;;;;;;;3.64;64.48;102892.72;5003610;28;20116;-67
2022/03/24 01:08:44;;;;;;;59.88;28.45;;;;;;;3.58;63.88;102901.53;5003362;28;20038;-67
2022/03/24 01:11:10;;;;;;;64.05;29.38;;;;;;;3.58;63.87;102890.97;5003242;28;20041;-67
2022/03/24 01:13:37;;;;;;;56.83;28.27;;;;;;;3.66;63.71;102895.34;5002169;28;20841;-69
2022/03/24 01:16:05;;;;;;;56.63;28.80;;;;;;;3.62;63.87;102891.84;5004075;28;20141;-67
2022/03/24 01:18:34;;;;;;;52.22;27.60;;;;;;;3.67;64.00;102887.44;5002439;28;20042;-67
2022/03/24 01:21:03;;;;;;;60.78;27.13;;;;;;;3.60;63.56;102881.28;4995804;28;20709;-66
2022/03/24 01:23:30;;;;;;;57.55;26.38;;;;;;;3.52;64.02;102890.13;4984435;28;20137;-67
2022/03/24 01:25:59;;;;;;;52.83;27.42;;;;;;;3.35;64.44;102888.34;4982694;28;20042;-68
2022/03/24 01:28:25;;;;;;;55.75;26.70;;;;;;;3.36;64.87;102876.94;4983667;28;20080;-67
2022/03/24 01:30:51;;;;;;;59.72;29.45;;;;;;;3.36;64.54;102884.84;4983605;28;20127;-67
2022/03/24 01:33:16;;;;;;;58.25;27.35;;;;;;;3.43;64.58;102879.56;4983487;28;20093;-67
2022/03/24 01:35:42;;;;;;;64.70;29.40;;;;;;;3.20;65.73;102885.72;4981822;28;20208;-67
2022/03/24 01:38:10;;;;;;;59.40;28.05;;;;;;;3.21;65.48;102879.56;4981917;28;20038;-68
2022/03/24 01:40:36;;;;;;;54.97;27.95;;;;;;;3.45;63.77;102877.78;4982851;28;20049;-67
2022/03/24 01:43:02;;;;;;;56.35;26.95;;;;;;;3.34;64.48;102875.16;4983414;28;20230;-67
2022/03/24 01:45:27;;;;;;;67.53;30.13;;;;;;;3.28;64.17;102880.44;4965279;28;20050;-67
2022/03/24 01:47:53;;;;;;;60.67;29.58;;;;;;;3.13;64.81;102875.19;4983069;28;20046;-67
2022/03/24 01:50:19;;;;;;;64.00;28.02;;;;;;;3.14;64.68;102869.91;4982094;28;20042;-68
2022/03/24 01:52:45;;;;;;;61.65;29.40;;;;;;;3.08;64.90;102870.78;4965217;28;20039;-68
2022/03/24 01:55:13;;;;;;;62.97;29.75;;;;;;;3.17;64.77;102869.03;4981627;28;20105;-67
2022/03/24 01:57:40;;;;;;;59.42;29.23;;;;;;;3.05;64.90;102864.63;5001417;28;20041;-68
2022/03/24 02:00:07;;;;;;;61.28;29.23;;;;;;;2.91;64.98;102872.50;5000477;28;20173;-67
2022/03/24 02:02:41;;;;;;;57.90;28.67;;;;;;;2.73;65.72;102872.50;5002244;28;20048;-67
2022/03/24 02:05:08;;;;;;;64.20;27.30;;;;;;;2.79;66.31;102867.22;5000867;28;20044;-68
2022/03/24 02:07:36;;;;;;;71.18;31.17;;;;;;;2.73;66.68;102868.09;4999995;28;20399;-67
2022/03/24 02:10:05;;;;;;;63.63;27.13;;;;;;;2.63;66.57;102870.72;5000514;28;20119;-70
2022/03/24 02:12:33;;;;;;;65.57;27.67;;;;;;;2.57;66.70;102864.56;5002271;28;20627;-67
2022/03/24 02:14:59;;;;;;;65.90;27.48;;;;;;;2.48;66.79;102864.53;4984063;28;20038;-67
2022/03/24 02:17:29;;;;;;;65.13;27.92;;;;;;;2.50;67.53;102864.53;4983863;28;20033;-67
2022/03/24 02:19:57;;;;;;;56.67;27.92;;;;;;;2.44;66.62;102862.75;5000667;28;20038;-67
2022/03/24 02:22:23;;;;;;;63.22;27.73;;;;;;;2.67;66.37;102867.22;4980581;28;20088;-67
2022/03/24 02:24:48;;;;;;;56.03;26.77;;;;;;;2.73;65.56;102862.84;4982427;28;20068;-67
2022/03/24 02:27:14;;;;;;;59.97;26.15;;;;;;;2.88;65.45;102867.25;4983362;28;20046;-67
2022/03/24 02:29:40;;;;;;;55.10;26.20;;;;;;;2.82;66.00;102862.88;4983212;28;20562;-67
2022/03/24 02:32:08;;;;;;;55.38;26.25;;;;;;;2.81;66.24;102866.38;4983230;28;20038;-67
2022/03/24 02:34:37;;;;;;;59.72;26.65;;;;;;;2.82;66.50;102857.59;4983360;28;20038;-67
2022/03/24 02:37:07;;;;;;;59.83;26.33;;;;;;;2.81;65.72;102858.47;4983732;28;20057;-67
2022/03/24 02:39:38;;;;;;;58.22;26.23;;;;;;;2.82;66.76;102854.09;4983405;28;20056;-67
2022/03/24 02:42:04;;;;;;;56.00;26.42;;;;;;;2.89;65.97;102852.31;4965712;28;20053;-67
2022/03/24 02:44:31;;;;;;;59.63;25.85;;;;;;;2.87;66.01;102854.97;4964975;28;20568;-66
2022/03/24 02:46:59;;;;;;;55.67;25.83;;;;;;;2.79;66.66;102854.94;4983800;28;20050;-67
2022/03/24 02:49:27;;;;;;;67.90;26.90;;;;;;;2.68;66.64;102861.06;4965928;28;20117;-67
2022/03/24 02:51:54;;;;;;;70.32;27.35;;;;;;;2.73;66.60;102859.31;4982852;28;20039;-68
2022/03/24 02:54:22;;;;;;;60.10;27.25;;;;;;;2.73;66.04;102856.69;4992352;28;20037;-67
2022/03/24 02:56:48;;;;;;;59.75;28.75;;;;;;;2.70;66.81;102862.81;5000985;28;20807;-67
2022/03/24 02:59:15;;;;;;;62.60;29.20;;;;;;;2.62;66.97;102855.81;5002371;28;20037;-67
2022/03/24 03:01:43;;;;;;;61.00;28.13;;;;;;;2.45;67.63;102861.88;5002251;28;20076;-67
2022/03/24 03:04:09;;;;;;;58.97;27.23;;;;;;;2.44;67.80;102862.75;5002297;28;20048;-67
2022/03/24 03:06:35;;;;;;;62.00;28.88;;;;;;;2.52;67.59;102860.16;5002017;28;20549;-67
2022/03/24 03:09:02;;;;;;;73.70;29.63;;;;;;;2.56;66.63;102864.53;5002392;28;20057;-67
2022/03/24 03:11:30;;;;;;;57.35;26.60;;;;;;;2.47;67.66;102875.06;5002228;28;20034;-68
2022/03/24 03:13:56;;;;;;;55.83;26.77;;;;;;;2.43;67.17;102871.53;5002560;28;20049;-67
2022/03/24 03:16:22;;;;;;;54.25;27.02;;;;;;;2.49;67.57;102870.69;5002316;28;20129;-67
2022/03/24 03:18:47;;;;;;;59.95;27.05;;;;;;;2.51;67.43;102863.66;5002034;28;20037;-67
2022/03/24 03:21:13;;;;;;;63.00;28.42;;;;;;;2.77;67.84;102861.09;5001817;28;20046;-67
2022/03/24 03:23:38;;;;;;;59.28;26.92;;;;;;;2.95;66.53;102861.09;4983017;28;20046;-67
2022/03/24 03:26:05;;;;;;;58.13;26.20;;;;;;;2.82;66.59;102867.25;5001168;28;20192;-67
2022/03/24 03:28:31;;;;;;;58.72;27.00;;;;;;;2.94;66.11;102861.09;5002126;28;20184;-67
2022/03/24 03:30:57;;;;;;;62.38;27.10;;;;;;;3.05;66.63;102856.72;5001472;28;20049;-67
2022/03/24 03:33:22;;;;;;;65.57;28.15;;;;;;;2.97;66.81;102859.38;4983227;28;20046;-67
2022/03/24 03:35:48;;;;;;;66.03;31.45;;;;;;;2.68;67.58;102861.94;5001668;28;20541;-69
2022/03/24 03:38:13;;;;;;;71.55;32.53;;;;;;;2.48;68.07;102858.41;5002115;28;20053;-67
2022/03/24 03:40:39;;;;;;;74.30;31.85;;;;;;;2.41;68.65;102867.13;5002310;28;20045;-67
2022/03/24 03:43:04;;;;;;;67.20;29.83;;;;;;;2.38;68.73;102861.88;5002211;28;20061;-67
2022/03/24 03:45:30;;;;;;;59.88;29.10;;;;;;;2.27;69.23;102857.47;5002323;28;20073;-67
2022/03/24 03:47:55;;;;;;;67.10;30.70;;;;;;;2.26;68.99;102865.31;5001948;28;20096;-67
2022/03/24 03:50:21;;;;;;;55.95;27.02;;;;;;;2.22;67.99;102860.94;5001886;28;20033;-67
2022/03/24 03:52:46;;;;;;;55.97;27.70;;;;;;;2.22;68.35;102858.31;5002961;28;20041;-68
2022/03/24 03:55:12;;;;;;;60.78;28.38;;;;;;;2.23;67.66;102857.44;5002308;28;20045;-67
2022/03/24 03:57:37;;;;;;;56.85;27.02;;;;;;;2.30;67.07;102854.81;5002924;28;20041;-67
2022/03/24 04:00:52;;;;;;;60.67;26.10;;;;;;;2.39;67.23;102859.25;4984505;28;20142;-67
2022/03/24 04:02:51;;;;;;;64.93;27.00;;;;;;;2.32;67.70;102853.09;5002249;28;20525;-66
2022/03/24 04:05:23;;;;;;;67.65;32.00;;;;;;;2.14;68.33;102852.13;5005475;28;20046;-67
2022/03/24 04:07:49;;;;;;;59.22;29.08;;;;;;;1.88;69.79;102862.53;5005888;28;20042;-67
2022/03/24 04:10:15;;;;;;;69.72;32.30;;;;;;;1.91;69.80;102862.53;4987281;28;20096;-67
2022/03/24 04:12:42;;;;;;;69.93;30.08;;;;;;;1.95;70.24;102859.06;5005278;28;20041;-68
2022/03/24 04:15:07;;;;;;;68.45;30.55;;;;;;;1.88;69.93;102858.16;5005309;28;20069;-67
2022/03/24 04:17:33;;;;;;;70.53;29.77;;;;;;;1.87;70.75;102861.66;5005445;28;20049;-67
2022/03/24 04:19:58;;;;;;;66.63;31.35;;;;;;;1.93;71.19;102866.06;4987076;28;20045;-67
2022/03/24 04:22:24;;;;;;;65.38;29.40;;;;;;;1.94;70.82;102870.47;5004788;28;20490;-67
2022/03/24 04:24:50;;;;;;;63.63;30.48;;;;;;;1.86;70.97;102867.81;5004638;28;20042;-67
2022/03/24 04:27:16;;;;;;;66.93;30.38;;;;;;;1.85;71.10;102866.03;5004415;28;20056;-67
2022/03/24 04:29:41;;;;;;;70.82;31.10;;;;;;;1.86;70.33;102859.00;5004182;28;20562;-67
2022/03/24 04:32:07;;;;;;;76.15;28.88;;;;;;;1.86;70.16;102857.28;5002816;28;20169;-66
2022/03/24 04:34:33;;;;;;;70.03;29.63;;;;;;;1.79;70.58;102858.97;5004768;28;20049;-67
2022/03/24 04:36:58;;;;;;;62.38;28.02;;;;;;;1.78;71.21;102861.63;4986981;28;20056;-67
2022/03/24 04:39:23;;;;;;;68.32;29.40;;;;;;;1.80;70.55;102863.38;5003062;28;20045;-67
2022/03/24 04:41:49;;;;;;;63.47;29.33;;;;;;;1.88;70.40;102859.91;5002655;28;20072;-66
2022/03/24 04:44:14;;;;;;;62.72;27.77;;;;;;;1.88;69.96;102859.91;5004200;28;20052;-68
2022/03/24 04:46:40;;;;;;;59.95;28.50;;;;;;;1.89;70.01;102859.91;5004507;28;20045;-68
2022/03/24 04:49:08;;;;;;;64.75;27.38;;;;;;;1.85;70.01;102858.13;5004005;28;20042;-67
2022/03/24 04:51:33;;;;;;;60.17;27.85;;;;;;;1.74;69.77;102865.09;5001882;28;20041;-66
2022/03/24 04:53:59;;;;;;;62.55;28.15;;;;;;;1.80;70.09;102865.13;5003086;28;20038;-67
2022/03/24 04:56:24;;;;;;;60.08;26.38;;;;;;;1.79;69.61;102864.25;5003277;28;20034;-67
2022/03/24 04:58:49;;;;;;;63.30;29.42;;;;;;;1.48;70.83;102860.53;4967380;28;20053;-67
2022/03/24 05:01:16;;;;;;;67.53;28.98;;;;;;;1.39;71.96;102863.09;5003662;28;20037;-67
2022/03/24 05:03:46;;;;;;;59.38;27.65;;;;;;;1.38;70.99;102876.25;4993033;28;20050;-66
2022/03/24 05:06:13;;;;;;;56.22;25.67;;;;;;;1.45;70.38;102872.78;4993868;28;20831;-66
2022/03/24 05:08:39;;;;;;;63.00;27.98;;;;;;;1.19;70.83;102881.34;4984989;28;20050;-69
2022/03/24 05:11:05;;;;;;;61.47;29.35;;;;;;;1.23;70.58;102872.63;5003000;28;20041;-67
2022/03/24 05:13:30;;;;;;;67.50;28.15;;;;;;;1.16;71.93;102878.72;5003315;28;20605;-67
2022/03/24 05:15:58;;;;;;;60.30;26.08;;;;;;;1.28;70.86;102873.53;5002674;28;20033;-67
2022/03/24 05:18:26;;;;;;;65.25;28.38;;;;;;;1.30;71.02;102870.91;5002484;28;20506;-67
2022/03/24 05:20:53;;;;;;;61.08;26.17;;;;;;;1.27;70.67;102878.78;5003725;28;20049;-67
2022/03/24 05:23:18;;;;;;;58.85;25.73;;;;;;;1.12;70.34;102870.78;5003587;28;20398;-66
2022/03/24 05:25:47;;;;;;;61.40;26.02;;;;;;;1.08;71.13;102877.75;4995129;28;20046;-67
2022/03/24 05:28:13;;;;;;;60.53;25.65;;;;;;;1.01;71.14;102871.56;4999974;28;20405;-68
2022/03/24 05:30:39;;;;;;;59.63;26.95;;;;;;;1.08;70.27;102874.25;5004426;28;20041;-67
2022/03/24 05:33:04;;;;;;;61.30;25.75;;;;;;;0.90;70.65;102881.06;4986897;28;20048;-66
2022/03/24 05:35:35;;;;;;;61.58;26.80;;;;;;;0.90;71.48;102877.56;5001248;28;20049;-67
2022/03/24 05:38:01;;;;;;;64.72;26.50;;;;;;;1.02;71.41;102873.34;4984440;28;20053;-66
2022/03/24 05:40:26;;;;;;;63.88;26.92;;;;;;;1.06;70.80;102879.50;4984792;28;20184;-67
2022/03/24 05:42:52;;;;;;;60.85;27.30;;;;;;;1.08;71.26;102879.50;4984536;28;20054;-67
2022/03/24 05:45:17;;;;;;;63.13;26.90;;;;;;;1.15;71.29;102874.31;4985283;28;20140;-67
2022/03/24 05:47:43;;;;;;;68.55;28.88;;;;;;;1.26;70.86;102874.41;4984602;28;20532;-66
2022/03/24 05:50:10;;;;;;;62.30;27.38;;;;;;;1.41;70.55;102877.16;4967075;28;20038;-67
2022/03/24 05:52:59;;;;;;;69.45;28.83;;;;;;;1.60;70.27;102872.88;4967322;28;20070;-66
2022/03/24 05:55:24;;;;;;;66.80;28.50;;;;;;;1.66;69.81;102874.69;5002251;28;20124;-67
2022/03/24 05:57:50;;;;;;;70.55;29.70;;;;;;;1.70;70.05;102871.19;5004221;28;20048;-67
2022/03/24 06:00:16;;;;;;;63.95;28.98;;;;;;;1.74;69.38;102878.25;5003801;28;20038;-67
2022/03/24 06:02:43;;;;;;;68.55;28.65;;;;;;;1.83;69.64;102880.06;5003392;28;20475;-67
2022/03/24 06:05:11;;;;;;;73.60;30.00;;;;;;;1.90;70.10;102876.56;5002383;28;20411;-68
2022/03/24 06:07:36;;;;;;;62.92;28.10;;;;;;;2.12;69.31;102872.31;4983267;28;20046;-67
2022/03/24 06:10:02;;;;;;;59.53;27.73;;;;;;;2.28;68.74;102876.75;5002205;28;20030;-67
2022/03/24 06:12:28;;;;;;;59.85;25.80;;;;;;;2.37;67.90;102884.69;5002425;28;20067;-66
2022/03/24 06:14:53;;;;;;;58.55;26.80;;;;;;;2.44;67.89;102881.19;5000570;28;20049;-67
2022/03/24 06:17:20;;;;;;;63.25;26.92;;;;;;;2.53;68.08;102878.59;4998816;28;20319;-66
2022/03/24 06:19:47;;;;;;;61.05;28.15;;;;;;;2.71;67.41;102883.03;4994158;28;20037;-68
2022/03/24 06:22:13;;;;;;;65.15;26.70;;;;;;;2.99;67.25;102878.69;4979985;28;20042;-68
2022/03/24 06:24:39;;;;;;;65.70;27.52;;;;;;;3.20;66.18;102883.06;4988634;28;20041;-67
2022/03/24 06:27:04;;;;;;;58.38;27.08;;;;;;;3.29;65.83;102876.94;4998298;28;20041;-67
2022/03/24 06:29:31;;;;;;;53.17;26.30;;;;;;;3.46;65.85;102885.69;5000905;28;20044;-67
2022/03/24 06:31:56;;;;;;;61.72;25.95;;;;;;;3.53;65.30;102881.31;4996270;28;20068;-68
2022/03/24 06:34:23;;;;;;;58.25;26.65;;;;;;;3.66;65.59;102884.78;5001473;28;20037;-67
2022/03/24 06:36:50;;;;;;;55.83;25.00;;;;;;;3.82;64.85;102892.69;4989808;28;20057;-68
2022/03/24 06:39:16;;;;;;;56.20;25.50;;;;;;;3.93;65.00;102882.09;4982056;28;20038;-67
2022/03/24 06:41:42;;;;;;;58.35;27.13;;;;;;;4.08;64.71;102889.09;5001268;28;20048;-66
2022/03/24 06:44:08;;;;;;;60.03;26.85;;;;;;;4.29;64.45;102894.28;5000975;28;20145;-67
2022/03/24 06:46:35;;;;;;;51.38;24.75;;;;;;;4.50;64.66;102887.16;5001400;28;20054;-67
2022/03/24 06:49:01;;;;;;;56.30;26.92;;;;;;;4.80;63.95;102894.91;5001131;28;20061;-67
2022/03/24 06:51:26;;;;;;;60.35;27.58;;;;;;;5.41;60.61;102888.28;5001294;28;20054;-67
2022/03/24 06:53:51;;;;;;;57.92;27.25;;;;;;;5.56;60.86;102884.59;5000830;28;20049;-67
2022/03/24 06:56:17;;;;;;;54.85;27.33;;;;;;;6.17;58.20;102884.84;4999620;28;20050;-68
2022/03/24 06:58:43;;;;;;;63.13;28.88;;;;;;;6.58;56.85;102895.84;5001361;28;20046;-67
2022/03/24 07:01:10;;;;;;;53.75;27.55;;;;;;;6.96;55.95;102889.97;5001230;28;20068;-67
2022/03/24 07:03:36;;;;;;;59.47;27.48;;;;;;;7.31;55.97;102891.16;5001343;28;20044;-67
2022/03/24 07:06:01;;;;;;;69.47;27.13;;;;;;;7.35;57.52;102892.88;5001273;28;20829;-67
2022/03/24 07:08:27;;;;;;;52.88;26.08;;;;;;;7.53;57.39;102889.91;4983047;28;20053;-67
2022/03/24 07:10:52;;;;;;;50.45;26.27;;;;;;;8.13;57.22;102894.94;5000876;28;20601;-67
2022/03/24 07:13:18;;;;;;;54.30;26.02;;;;;;;8.11;58.25;102896.75;5000509;28;20757;-67
2022/03/24 07:15:43;;;;;;;60.00;28.55;;;;;;;8.33;58.70;102899.84;5000918;28;20042;-67
2022/03/24 07:18:10;;;;;;;64.28;29.65;;;;;;;8.90;55.83;102896.88;5002062;28;20049;-69
2022/03/24 07:20:36;;;;;;;66.03;32.42;;;;;;;8.44;56.08;102903.22;4983315;28;20802;-67
2022/03/24 07:23:03;;;;;;;63.33;30.00;;;;;;;8.80;57.47;102898.88;5000645;28;20394;-68
2022/03/24 07:25:30;;;;;;;67.40;30.27;;;;;;;9.56;52.40;102903.22;5000970;28;20151;-67
2022/03/24 07:27:57;;;;;;;60.50;31.90;;;;;;;9.40;52.41;102904.53;5000401;28;20136;-67
2022/03/24 07:30:22;;;;;;;63.58;32.00;;;;;;;9.42;53.14;102894.72;5000419;28;20445;-67
2022/03/24 07:32:48;;;;;;;62.58;31.15;;;;;;;9.48;54.82;102902.53;5000237;28;20052;-66
2022/03/24 07:35:14;;;;;;;58.67;30.52;;;;;;;9.78;52.45;102896.41;5000417;28;20052;-67
2022/03/24 07:37:41;;;;;;;65.60;32.00;;;;;;;10.00;53.32;102895.84;5000322;28;20506;-68
2022/03/24 07:40:09;;;;;;;68.32;31.80;;;;;;;10.47;52.38;102896.28;5001903;28;20034;-67
2022/03/24 07:42:35;;;;;;;63.20;30.40;;;;;;;10.70;51.29;102891.13;5003984;28;20041;-67
2022/03/24 07:45:01;;;;;;;65.53;31.73;;;;;;;10.81;51.70;102896.13;4986611;28;20834;-67
2022/03/24 07:47:26;;;;;;;64.30;31.33;;;;;;;10.83;52.02;102891.59;5004485;28;20034;-68
2022/03/24 07:49:52;;;;;;;58.90;31.10;;;;;;;10.69;50.08;102896.47;5004209;28;20046;-67
2022/03/24 07:52:18;;;;;;;59.88;31.02;;;;;;;10.58;51.09;102899.50;5004180;28;20485;-67
2022/03/24 07:54:59;;;;;;;64.82;34.13;;;;;;;10.76;51.59;102896.25;5004100;28;20042;-67
2022/03/24 07:57:25;;;;;;;62.50;32.38;;;;;;;10.99;51.89;102895.50;5004120;28;20756;-67
2022/03/24 07:59:51;;;;;;;63.00;32.33;;;;;;;11.19;52.79;102896.66;4995050;28;20046;-67
2022/03/24 08:02:17;;;;;;;76.47;33.67;;;;;;;11.13;51.23;102900.41;4984724;28;20064;-68
2022/03/24 08:04:43;;;;;;;61.88;31.17;;;;;;;11.34;50.62;102901.50;4967127;28;20038;-67
2022/03/24 08:07:08;;;;;;;68.47;34.13;;;;;;;11.65;49.52;102899.56;4984287;28;20096;-67
2022/03/24 08:09:34;;;;;;;66.30;32.00;;;;;;;11.38;50.54;102904.03;4984167;28;20057;-67
2022/03/24 08:11:59;;;;;;;57.33;30.85;;;;;;;11.72;49.04;102902.88;4984260;28;20054;-67
2022/03/24 08:14:26;;;;;;;69.03;34.13;;;;;;;11.78;49.04;102904.44;4984349;28;20697;-68
2022/03/24 08:16:51;;;;;;;70.63;34.08;;;;;;;11.46;50.12;102910.94;4984343;28;20109;-67
2022/03/24 08:19:17;;;;;;;63.50;32.65;;;;;;;11.47;50.62;102910.84;4966618;28;20582;-67
2022/03/24 08:21:42;;;;;;;62.33;33.15;;;;;;;11.66;50.27;102909.31;4997861;28;20050;-67
2022/03/24 08:24:08;;;;;;;61.60;34.38;;;;;;;12.15;50.42;102918.28;5004010;28;20096;-67
2022/03/24 08:26:35;;;;;;;62.30;33.05;;;;;;;11.57;49.74;102917.63;5003531;28;20042;-67
2022/03/24 08:29:00;;;;;;;61.90;32.63;;;;;;;11.47;50.08;102915.34;5003230;28;20038;-67
2022/03/24 08:31:25;;;;;;;64.35;34.30;;;;;;;11.75;50.02;102913.47;5003210;28;20056;-67
2022/03/24 08:33:51;;;;;;;59.97;33.85;;;;;;;11.60;48.93;102916.69;5003014;28;20104;-66
2022/03/24 08:36:16;;;;;;;64.95;33.97;;;;;;;11.37;51.65;102929.00;5003305;28;20505;-67
2022/03/24 08:38:42;;;;;;;65.60;32.30;;;;;;;11.48;51.34;102917.06;5002345;28;20868;-67
2022/03/24 08:41:08;;;;;;;61.00;32.42;;;;;;;11.40;48.88;102915.53;4985391;28;20053;-66
2022/03/24 08:43:33;;;;;;;64.15;32.53;;;;;;;12.06;47.36;102910.59;5002864;28;20200;-70
2022/03/24 08:45:59;;;;;;;61.70;31.85;;;;;;;11.80;48.17;102916.84;5002968;28;20880;-67
2022/03/24 08:48:25;;;;;;;63.80;33.47;;;;;;;11.88;51.84;102919.28;5003228;28;20060;-66
2022/03/24 08:50:50;;;;;;;57.47;31.48;;;;;;;12.43;46.61;102923.47;5001669;28;20078;-66
2022/03/24 08:53:16;;;;;;;68.75;32.42;;;;;;;12.63;46.55;102927.19;5003004;28;20092;-66
2022/03/24 08:55:42;;;;;;;62.92;31.35;;;;;;;12.76;45.17;102925.81;5003149;28;20046;-66
2022/03/24 08:58:08;;;;;;;58.58;30.08;;;;;;;12.95;45.50;102923.25;5003336;28;20042;-67
2022/03/24 09:00:34;;;;;;;63.60;32.25;;;;;;;12.88;46.22;102927.97;5003397;28;20076;-66
2022/03/24 09:03:00;;;;;;;58.80;31.85;;;;;;;12.85;44.47;102928.13;5003519;28;20503;-66
2022/03/24 09:05:26;;;;;;;61.50;30.98;;;;;;;13.19;42.16;102930.28;5002050;28;20064;-66
2022/03/24 09:07:51;;;;;;;59.65;30.17;;;;;;;13.36;42.96;102934.13;5003126;28;20046;-67
2022/03/24 09:10:17;;;;;;;63.55;31.58;;;;;;;13.41;44.49;102930.34;5002700;28;20034;-66
2022/03/24 09:12:46;;;;;;;56.88;29.73;;;;;;;13.56;42.06;102936.00;5002773;28;20560;-66
2022/03/24 09:15:14;;;;;;;62.33;31.33;;;;;;;13.48;45.68;102934.47;5002596;28;20041;-66
2022/03/24 09:17:40;;;;;;;54.65;29.15;;;;;;;13.71;40.84;102929.97;5002819;28;20680;-67
2022/03/24 09:20:09;;;;;;;52.40;29.85;;;;;;;13.41;41.96;102934.81;5002720;28;20037;-67
2022/03/24 09:22:38;;;;;;;52.42;28.13;;;;;;;13.57;43.18;102940.41;5002409;28;20049;-66
2022/03/24 09:25:04;;;;;;;54.63;29.45;;;;;;;13.70;43.09;102933.56;5002633;28;20029;-67
2022/03/24 09:27:30;;;;;;;52.95;28.00;;;;;;;13.94;45.34;102939.69;5002615;28;20225;-66
2022/03/24 09:29:55;;;;;;;46.88;27.63;;;;;;;13.93;40.30;102937.94;5002527;28;20147;-67
2022/03/24 09:32:21;;;;;;;55.42;28.17;;;;;;;14.31;40.48;102930.88;5001078;28;20577;-67
2022/03/24 09:34:46;;;;;;;56.50;26.15;;;;;;;14.15;38.60;102936.03;5001924;28;20052;-68
2022/03/24 09:37:13;;;;;;;45.33;26.00;;;;;;;14.02;39.05;102939.34;5002526;28;20041;-67
2022/03/24 09:39:40;;;;;;;49.45;27.58;;;;;;;14.19;39.22;102934.09;5002436;28;20658;-66
2022/03/24 09:42:06;;;;;;;47.10;26.30;;;;;;;14.11;39.78;102936.28;4984579;28;20069;-67
2022/03/24 09:44:32;;;;;;;46.97;26.98;;;;;;;14.19;38.72;102932.28;5002045;28;20038;-67
2022/03/24 09:46:57;;;;;;;49.40;27.25;;;;;;;14.64;39.67;102941.88;5001906;28;20857;-66
2022/03/24 09:49:24;;;;;;;47.08;25.48;;;;;;;14.51;35.92;102935.38;5001929;28;20049;-67
2022/03/24 09:51:50;;;;;;;50.20;27.58;;;;;;;14.30;39.06;102931.78;5001660;28;20096;-68
2022/03/24 09:54:16;;;;;;;51.53;26.75;;;;;;;14.77;38.33;102931.44;4984293;28;20045;-67
2022/03/24 09:56:41;;;;;;;43.70;24.45;;;;;;;14.39;35.11;102936.75;5001804;28;20115;-66
2022/03/24 09:59:09;;;;;;;47.25;24.80;;;;;;;14.71;38.60;102929.06;5001718;28;20049;-67
2022/03/24 10:01:36;;;;;;;48.58;26.15;;;;;;;14.89;37.52;102932.66;5001219;28;20057;-67
2022/03/24 10:04:08;;;;;;;50.92;28.67;;;;;;;14.73;37.27;102927.16;5001723;28;20038;-67
2022/03/24 10:06:35;;;;;;;50.90;25.75;;;;;;;14.96;35.76;102932.31;5001384;28;20049;-67
2022/03/24 10:09:01;;;;;;;49.67;26.55;;;;;;;14.86;35.38;102930.13;5001783;28;20064;-66
2022/03/24 10:11:27;;;;;;;49.80;26.60;;;;;;;15.15;37.06;102924.19;5001179;28;20045;-68
2022/03/24 10:13:55;;;;;;;52.58;28.33;;;;;;;15.16;40.81;102923.28;4983541;28;20414;-69
2022/03/24 10:16:32;;;;;;;51.58;26.92;;;;;;;15.15;36.59;102926.88;5001255;28;20044;-67
2022/03/24 10:19:05;;;;;;;53.15;27.35;;;;;;;15.33;38.99;102918.88;4983981;28;20458;-67
2022/03/24 10:21:35;;;;;;;51.45;28.67;;;;;;;15.52;37.59;102925.06;5001416;28;20041;-66
2022/03/24 10:24:18;;;;;;;57.65;27.60;;;;;;;15.68;37.27;102911.72;5001232;28;20052;-67
2022/03/24 10:26:55;;;;;;;57.88;27.77;;;;;;;15.71;40.01;102915.13;5001165;28;20041;-67
2022/03/24 10:29:23;;;;;;;50.88;27.70;;;;;;;15.52;37.13;102914.31;5001363;28;20398;-67
2022/03/24 10:31:53;;;;;;;53.65;27.42;;;;;;;15.56;37.01;102915.88;5001287;28;20038;-68
2022/03/24 10:34:30;;;;;;;41.90;24.35;;;;;;;15.62;35.03;102910.19;5001387;28;20042;-67
2022/03/24 10:36:55;;;;;;;60.45;29.60;;;;;;;15.61;35.83;102918.31;5000871;28;20600;-67
2022/03/24 10:39:26;;;;;;;54.78;28.33;;;;;;;15.78;36.38;102911.16;5000590;28;20030;-66
2022/03/24 10:41:52;;;;;;;51.95;25.95;;;;;;;16.10;37.53;102919.34;5000854;28;20053;-67
2022/03/24 10:44:18;;;;;;;45.25;26.10;;;;;;;15.76;35.57;102910.38;5000441;28;20387;-67
2022/03/24 10:46:44;;;;;;;50.95;27.65;;;;;;;15.82;34.44;102908.34;5001119;28;20402;-67
2022/03/24 10:49:27;;;;;;;53.38;27.88;;;;;;;15.72;35.81;102900.72;4983651;28;20063;-67
2022/03/24 10:51:53;;;;;;;51.92;27.08;;;;;;;15.96;34.31;102898.53;4998543;28;21063;-67
2022/03/24 10:54:37;;;;;;;52.15;25.90;;;;;;;16.24;37.94;102905.16;4999838;28;20038;-67
2022/03/24 10:57:08;;;;;;;44.38;26.45;;;;;;;16.13;35.88;102908.44;4995237;28;20037;-67
2022/03/24 10:59:38;;;;;;;47.50;26.45;;;;;;;16.35;34.75;102912.66;4981297;28;20754;-67
2022/03/24 11:02:04;;;;;;;51.03;26.88;;;;;;;16.47;35.99;102903.91;4998727;28;20084;-66
2022/03/24 11:04:30;;;;;;;42.22;25.35;;;;;;;16.51;34.40;102903.63;5001223;28;20046;-67
2022/03/24 11:06:55;;;;;;;56.50;27.52;;;;;;;16.74;35.77;102904.22;4983864;28;20540;-68
2022/03/24 11:09:27;;;;;;;49.45;26.05;;;;;;;16.32;31.96;102902.94;5001860;28;20037;-67
2022/03/24 11:12:27;;;;;;;48.90;25.98;;;;;;;16.56;33.62;102908.75;5001720;28;20049;-66